Terminal Aerodrome Forecast
Issued by NWS Wakefield, VA

Home | Current Version | Previous Version | Text Only | Print | Product List | Glossary On
Versions: 1 2 3 4 5 6 7 8 9 10 11 12 13 14 15 16 17 18 19 20
077
FTUS41 KAKQ 100548 RRA
TAFSBY
TAF
KSBY 100548Z 1006/1106 29007KT P6SM SCT030 OVC080
     FM101400 28013G20KT P6SM BKN050
     FM110000 29009KT P6SM OVC040=

USA.gov is the U.S. government's official web portal to all federal, state and local government web resources and services.